Time;durP1;ratioP1;P1;durP2;ratioP2;P2;SDS_P1;SDS_P2;PMS_P1;PMS_P2;Temp;Humidity;BMP_temperature;BMP_pressure;BME280_temperature;BME280_humidity;BME280_pressure;Samples;Min_cycle;Max_cycle;Signal;HPM_P1;HPM_P2
2022/03/12 00:00:49;;;;;;;8.98;4.32;;;6.30;59.50;;;;;;5036234;28;20045;-74
2022/03/12 00:03:16;;;;;;;5.88;4.35;;;6.30;59.70;;;;;;5035602;28;20362;-75
2022/03/12 00:06:06;;;;;;;6.28;4.25;;;6.30;59.60;;;;;;5035586;28;20132;-74
2022/03/12 00:08:40;;;;;;;6.22;4.25;;;6.30;60.00;;;;;;5035223;28;20057;-75
2022/03/12 00:11:06;;;;;;;6.93;4.13;;;6.20;59.90;;;;;;5036119;28;20136;-74
2022/03/12 00:13:32;;;;;;;6.18;4.32;;;6.20;59.60;;;;;;5035704;28;20057;-74
2022/03/12 00:15:59;;;;;;;7.18;4.60;;;6.20;59.90;;;;;;5035367;28;20478;-75
2022/03/12 00:18:30;;;;;;;5.63;3.97;;;6.20;60.10;;;;;;5035244;28;20148;-74
2022/03/12 00:21:01;;;;;;;6.07;4.25;;;6.20;60.20;;;;;;5035390;28;20049;-74
2022/03/12 00:23:28;;;;;;;6.47;4.35;;;6.10;60.00;;;;;;5018775;28;20092;-75
2022/03/12 00:25:54;;;;;;;7.03;4.20;;;6.20;60.10;;;;;;5033883;28;20088;-74
2022/03/12 00:28:20;;;;;;;6.97;4.75;;;6.20;60.10;;;;;;5033970;28;20128;-74
2022/03/12 00:30:50;;;;;;;7.32;4.80;;;6.20;60.10;;;;;;5033986;28;20042;-75
2022/03/12 00:33:21;;;;;;;7.45;4.40;;;6.10;60.10;;;;;;5033908;28;20042;-74
2022/03/12 00:35:49;;;;;;;6.95;4.40;;;6.20;60.00;;;;;;5034876;28;20049;-74
2022/03/12 00:38:21;;;;;;;6.95;4.47;;;6.20;59.80;;;;;;5033976;28;20504;-75
2022/03/12 00:40:47;;;;;;;7.07;4.18;;;6.20;60.00;;;;;;5035534;28;20042;-75
2022/03/12 00:43:14;;;;;;;7.30;4.80;;;6.60;60.00;;;;;;5033917;28;20393;-75
2022/03/12 00:45:40;;;;;;;7.10;4.47;;;6.10;59.90;;;;;;5034786;28;20056;-74
2022/03/12 00:48:06;;;;;;;7.10;4.38;;;6.20;60.00;;;;;;5034704;28;20042;-74
2022/03/12 00:50:32;;;;;;;7.20;4.40;;;6.20;59.90;;;;;;5034710;28;20128;-74
2022/03/12 00:52:58;;;;;;;6.95;4.70;;;6.30;60.00;;;;;;5035500;28;20145;-74
2022/03/12 00:55:24;;;;;;;7.20;4.88;;;6.20;59.90;;;;;;5033624;28;20057;-75
2022/03/12 00:57:50;;;;;;;5.05;3.88;;;6.40;59.90;;;;;;5017421;28;20072;-75
2022/03/12 01:00:21;;;;;;;8.38;4.97;;;6.20;59.90;;;;;;5033550;28;20060;-74
2022/03/12 01:02:48;;;;;;;7.95;5.13;;;6.20;59.70;;;;;;5035083;28;20049;-75
2022/03/12 01:05:24;;;;;;;7.75;4.55;;;6.10;60.00;;;;;;5016621;28;20107;-75
2022/03/12 01:07:50;;;;;;;7.18;4.00;;;6.10;59.80;;;;;;5034268;28;20054;-74
2022/03/12 01:10:16;;;;;;;6.80;4.75;;;6.10;59.90;;;;;;5034623;28;20060;-74
2022/03/12 01:12:43;;;;;;;6.03;4.32;;;6.10;59.90;;;;;;5033307;28;20041;-74
2022/03/12 01:15:11;;;;;;;6.80;3.83;;;6.10;59.90;;;;;;5034764;28;20083;-74
2022/03/12 01:17:38;;;;;;;6.45;4.35;;;6.10;60.00;;;;;;5017358;28;20061;-76
2022/03/12 01:20:06;;;;;;;7.15;4.25;;;6.10;59.90;;;;;;5034172;28;20057;-75
2022/03/12 01:22:35;;;;;;;8.00;4.60;;;6.10;60.30;;;;;;5033173;28;20094;-75
2022/03/12 01:25:06;;;;;;;7.75;4.20;;;6.10;59.90;;;;;;5034016;28;20045;-75
2022/03/12 01:27:33;;;;;;;6.03;4.15;;;6.00;59.80;;;;;;5032595;28;20058;-75
2022/03/12 01:30:00;;;;;;;7.53;4.55;;;5.90;60.00;;;;;;5034018;28;20060;-75
2022/03/12 01:32:26;;;;;;;7.50;4.07;;;6.10;60.10;;;;;;5033951;28;20053;-75
2022/03/12 01:34:51;;;;;;;8.13;4.63;;;6.00;60.10;;;;;;5034009;28;20041;-74
2022/03/12 01:37:19;;;;;;;7.05;4.70;;;6.00;60.00;;;;;;5033546;28;20041;-74
2022/03/12 01:39:49;;;;;;;6.88;4.25;;;6.00;59.90;;;;;;5032707;28;20055;-74
2022/03/12 01:42:16;;;;;;;6.18;4.18;;;6.20;60.20;;;;;;5032822;28;20053;-75
2022/03/12 01:44:43;;;;;;;7.85;4.72;;;6.10;59.80;;;;;;5033697;28;20042;-75
2022/03/12 01:47:11;;;;;;;7.38;4.30;;;6.00;59.90;;;;;;5033670;28;20054;-75
2022/03/12 01:49:38;;;;;;;9.00;4.32;;;5.80;59.90;;;;;;5032597;28;20374;-74
2022/03/12 01:52:04;;;;;;;6.00;4.25;;;6.00;59.70;;;;;;5033721;28;20099;-75
2022/03/12 01:54:32;;;;;;;6.70;4.18;;;5.90;59.50;;;;;;5034276;28;20050;-74
2022/03/12 01:56:58;;;;;;;5.65;3.80;;;6.10;59.80;;;;;;5034289;28;20048;-75
2022/03/12 01:59:24;;;;;;;8.65;4.32;;;6.10;59.90;;;;;;5016215;28;20107;-74
2022/03/12 02:01:55;;;;;;;6.43;3.75;;;5.90;59.80;;;;;;5032450;28;20053;-74
2022/03/12 02:04:22;;;;;;;6.60;4.05;;;6.40;59.80;;;;;;5033572;28;20045;-74
2022/03/12 02:06:50;;;;;;;6.30;4.47;;;6.20;59.80;;;;;;5032408;28;20057;-75
2022/03/12 02:09:17;;;;;;;5.30;4.20;;;5.90;59.80;;;;;;5033854;28;20115;-75
2022/03/12 02:11:50;;;;;;;7.45;4.47;;;5.90;60.10;;;;;;5022815;28;20554;-75
2022/03/12 02:14:18;;;;;;;8.00;3.97;;;6.10;60.30;;;;;;5040974;28;20347;-76
2022/03/12 02:17:11;;;;;;;6.78;3.92;;;6.40;60.40;;;;;;5040240;28;20393;-74
2022/03/12 02:19:39;;;;;;;8.23;4.50;;;6.00;60.20;;;;;;5037578;28;20136;-74
2022/03/12 02:22:07;;;;;;;6.75;3.88;;;5.80;60.40;;;;;;5040860;28;20049;-75
2022/03/12 02:24:36;;;;;;;8.63;4.68;;;6.00;59.70;;;;;;5039611;28;20501;-74
2022/03/12 02:27:04;;;;;;;5.50;3.70;;;5.90;59.70;;;;;;5038207;28;20057;-75
2022/03/12 02:29:31;;;;;;;6.43;4.03;;;5.80;59.80;;;;;;5040441;28;20057;-74
2022/03/12 02:32:00;;;;;;;7.07;3.92;;;5.90;59.90;;;;;;5022962;28;20038;-74
2022/03/12 02:34:38;;;;;;;7.00;4.20;;;5.80;59.90;;;;;;5038926;28;20052;-75
2022/03/12 02:37:05;;;;;;;5.80;4.10;;;5.70;59.90;;;;;;5038782;28;20053;-75
2022/03/12 02:39:34;;;;;;;6.13;3.78;;;6.30;60.10;;;;;;5040452;28;20098;-75
2022/03/12 02:42:03;;;;;;;6.65;4.13;;;6.10;60.10;;;;;;5039825;28;20052;-75
2022/03/12 02:44:29;;;;;;;7.03;4.57;;;6.10;60.10;;;;;;5040042;28;20187;-75
2022/03/12 02:47:14;;;;;;;6.38;4.00;;;5.90;60.10;;;;;;5039758;28;20389;-74
2022/03/12 02:50:08;;;;;;;9.13;4.35;;;5.70;60.10;;;;;;5039881;28;20048;-75
2022/03/12 02:52:41;;;;;;;6.90;4.25;;;5.70;60.00;;;;;;5039061;28;20045;-75
2022/03/12 02:55:13;;;;;;;7.15;4.05;;;5.80;60.30;;;;;;5039786;28;20072;-75
2022/03/12 02:57:40;;;;;;;5.53;3.83;;;5.70;60.20;;;;;;5038772;28;20052;-75
2022/03/12 03:00:08;;;;;;;5.78;3.78;;;5.70;60.10;;;;;;5039677;28;20045;-75
2022/03/12 03:02:41;;;;;;;5.57;3.65;;;5.70;60.20;;;;;;5039604;28;20057;-75
2022/03/12 03:08:03;;;;;;;6.57;4.05;;;5.80;60.20;;;;;;5039659;28;20179;-75
2022/03/12 03:10:34;;;;;;;6.35;3.70;;;5.90;60.30;;;;;;5039596;28;20478;-75
2022/03/12 03:13:16;;;;;;;6.55;4.18;;;5.60;60.40;;;;;;5040163;28;20056;-74
2022/03/12 03:15:59;;;;;;;7.40;3.97;;;5.70;60.50;;;;;;5039529;28;20056;-75
2022/03/12 03:18:28;;;;;;;7.30;4.30;;;5.60;60.10;;;;;;5038776;28;20053;-75
2022/03/12 03:20:55;;;;;;;4.47;3.42;;;5.60;60.60;;;;;;5037792;28;20046;-74
2022/03/12 03:23:27;;;;;;;4.85;3.55;;;5.60;59.90;;;;;;5034892;28;20099;-75
2022/03/12 03:25:53;;;;;;;8.27;4.03;;;6.00;60.10;;;;;;5035909;28;20434;-75
2022/03/12 03:28:19;;;;;;;7.13;3.95;;;5.80;60.10;;;;;;5036309;28;20132;-75
2022/03/12 03:30:45;;;;;;;7.70;4.50;;;5.70;60.20;;;;;;5036328;28;20049;-75
2022/03/12 03:33:14;;;;;;;4.40;3.30;;;5.50;60.40;;;;;;5036204;28;20048;-74
2022/03/12 03:35:40;;;;;;;6.30;3.78;;;5.50;60.40;;;;;;5035992;28;20053;-74
2022/03/12 03:38:07;;;;;;;6.03;3.47;;;5.50;60.40;;;;;;5036367;28;20041;-74
2022/03/12 03:40:33;;;;;;;10.18;3.58;;;6.20;60.60;;;;;;5034928;28;20049;-75
2022/03/12 03:42:59;;;;;;;7.20;3.85;;;5.50;60.20;;;;;;5036019;28;20055;-75
2022/03/12 03:45:27;;;;;;;6.07;3.53;;;5.80;60.50;;;;;;5035059;28;20424;-75
2022/03/12 03:47:54;;;;;;;5.85;3.75;;;5.50;60.40;;;;;;5035687;28;20061;-75
2022/03/12 03:50:25;;;;;;;8.05;3.95;;;5.50;60.40;;;;;;5035761;28;20052;-75
2022/03/12 03:53:03;;;;;;;5.70;3.97;;;5.50;60.80;;;;;;5035894;28;20053;-75
2022/03/12 03:55:30;;;;;;;7.60;3.80;;;6.00;61.00;;;;;;5035849;28;20053;-75
2022/03/12 03:57:56;;;;;;;5.10;3.55;;;5.40;60.80;;;;;;5036581;28;20128;-75
2022/03/12 04:00:23;;;;;;;6.20;3.50;;;5.40;60.90;;;;;;5035460;28;20509;-75
2022/03/12 04:02:55;;;;;;;5.03;3.50;;;5.40;60.80;;;;;;5035642;28;20563;-76
2022/03/12 04:05:22;;;;;;;6.20;3.88;;;5.40;60.90;;;;;;5036479;28;20041;-75
2022/03/12 04:07:48;;;;;;;4.85;3.10;;;5.40;61.70;;;;;;5035584;28;20096;-75
2022/03/12 04:10:13;;;;;;;6.90;4.10;;;6.30;61.60;;;;;;5034337;28;20080;-75
2022/03/12 04:12:39;;;;;;;6.05;4.15;;;5.60;61.00;;;;;;5034517;28;20058;-75
2022/03/12 04:15:06;;;;;;;5.70;3.85;;;5.40;60.90;;;;;;5035949;28;20087;-75
2022/03/12 04:17:34;;;;;;;7.07;3.85;;;5.40;61.40;;;;;;5034352;28;20050;-75
2022/03/12 04:20:00;;;;;;;8.10;3.78;;;5.70;61.50;;;;;;5034206;28;20052;-74
2022/03/12 04:22:26;;;;;;;5.88;4.00;;;5.50;61.70;;;;;;5035301;28;20052;-75
2022/03/12 04:24:52;;;;;;;6.38;3.65;;;4.00;60.70;;;;;;5034288;28;20042;-74
2022/03/12 04:27:17;;;;;;;4.90;3.45;;;5.10;61.10;;;;;;5034929;28;20061;-74
2022/03/12 04:29:43;;;;;;;5.55;3.50;;;5.20;61.20;;;;;;5035231;28;20060;-75
2022/03/12 04:32:10;;;;;;;5.45;3.50;;;5.70;61.40;;;;;;5034920;28;20054;-74
2022/03/12 04:34:36;;;;;;;5.20;3.25;;;5.30;61.10;;;;;;5035009;28;20048;-75
2022/03/12 04:37:03;;;;;;;6.32;3.47;;;5.20;61.00;;;;;;5034044;28;20038;-74
2022/03/12 04:39:30;;;;;;;6.38;3.55;;;5.20;61.20;;;;;;5034015;28;20093;-75
2022/03/12 04:41:56;;;;;;;6.30;3.03;;;5.60;61.40;;;;;;5034600;28;20050;-75
2022/03/12 04:44:22;;;;;;;5.15;3.75;;;5.30;61.40;;;;;;5034331;28;20527;-75
2022/03/12 04:46:48;;;;;;;6.50;3.65;;;5.30;61.50;;;;;;5035107;28;20045;-74
2022/03/12 04:49:14;;;;;;;5.88;3.30;;;5.80;62.00;;;;;;5035221;28;20149;-75
2022/03/12 04:51:42;;;;;;;4.85;3.47;;;5.20;61.80;;;;;;5034590;28;20053;-75
2022/03/12 04:54:08;;;;;;;5.18;3.35;;;5.20;61.90;;;;;;5033488;28;20111;-74
2022/03/12 04:56:34;;;;;;;5.25;3.55;;;5.50;62.30;;;;;;5034628;28;20092;-74
2022/03/12 04:59:00;;;;;;;5.40;3.47;;;5.40;62.40;;;;;;5033438;28;20085;-74
2022/03/12 05:01:26;;;;;;;5.18;3.65;;;4.80;62.30;;;;;;5034508;28;20084;-74
2022/03/12 05:03:52;;;;;;;4.10;3.60;;;5.10;62.10;;;;;;5034032;28;20111;-74
2022/03/12 05:06:18;;;;;;;6.57;3.25;;;5.00;62.20;;;;;;5034749;28;20049;-75
2022/03/12 05:08:45;;;;;;;7.13;4.00;;;5.50;62.80;;;;;;5034884;28;20076;-75
2022/03/12 05:11:10;;;;;;;4.22;3.33;;;5.40;63.20;;;;;;5034460;28;20098;-75
2022/03/12 05:13:36;;;;;;;6.60;3.78;;;4.90;64.00;;;;;;5016919;28;20045;-75
2022/03/12 05:16:06;;;;;;;5.68;3.67;;;4.90;64.60;;;;;;5034384;28;20049;-75
2022/03/12 05:18:34;;;;;;;5.38;3.72;;;4.90;64.00;;;;;;5034148;28;20050;-75
2022/03/12 05:21:00;;;;;;;6.05;3.85;;;4.80;64.10;;;;;;5033097;28;20068;-75
2022/03/12 05:23:26;;;;;;;6.20;3.88;;;4.80;64.20;;;;;;5034079;28;20045;-75
2022/03/12 05:25:52;;;;;;;6.53;3.88;;;4.80;64.50;;;;;;5033792;28;20144;-74
2022/03/12 05:28:23;;;;;;;5.30;3.50;;;5.00;65.00;;;;;;5034139;28;20508;-75
2022/03/12 05:30:50;;;;;;;5.80;3.80;;;4.80;64.90;;;;;;5033406;28;20107;-75
2022/03/12 05:33:18;;;;;;;6.50;3.90;;;4.70;64.80;;;;;;5033154;28;20404;-75
2022/03/12 05:35:46;;;;;;;5.47;3.38;;;5.00;65.30;;;;;;5032914;28;20081;-74
2022/03/12 05:38:13;;;;;;;5.82;3.67;;;4.70;64.40;;;;;;5034762;28;20133;-74
2022/03/12 05:40:40;;;;;;;4.78;2.92;;;4.40;64.20;;;;;;5016349;28;20104;-75
2022/03/12 05:43:12;;;;;;;5.13;3.35;;;4.60;64.20;;;;;;5032855;28;20493;-75
2022/03/12 05:45:39;;;;;;;5.57;3.35;;;4.60;64.30;;;;;;5033204;28;20049;-74
2022/03/12 05:48:08;;;;;;;7.20;3.72;;;4.60;64.40;;;;;;5034281;28;20056;-75
2022/03/12 05:50:34;;;;;;;4.35;3.20;;;4.70;64.50;;;;;;5034546;28;20046;-75
2022/03/12 05:53:01;;;;;;;4.65;3.20;;;4.80;64.90;;;;;;5032579;28;20046;-74
2022/03/12 05:55:26;;;;;;;5.30;3.05;;;4.40;64.30;;;;;;5032490;28;20057;-74
2022/03/12 05:57:52;;;;;;;6.43;3.70;;;5.00;64.30;;;;;;5034205;28;20108;-74
2022/03/12 06:00:19;;;;;;;6.63;3.40;;;4.80;64.10;;;;;;5033616;28;20072;-74
2022/03/12 06:02:51;;;;;;;4.72;3.03;;;4.60;63.80;;;;;;5033555;28;20124;-74
2022/03/12 06:05:26;;;;;;;5.57;3.60;;;4.50;64.00;;;;;;5033501;28;20045;-75
2022/03/12 06:07:53;;;;;;;4.85;3.47;;;4.50;63.50;;;;;;5033574;28;20081;-74
2022/03/12 06:10:22;;;;;;;5.25;3.75;;;4.50;63.80;;;;;;5033794;28;20118;-75
2022/03/12 06:12:48;;;;;;;5.57;3.33;;;4.50;64.20;;;;;;5034320;28;20092;-75
2022/03/12 06:15:17;;;;;;;5.00;3.53;;;6.00;64.80;;;;;;5033463;28;20050;-75
2022/03/12 06:17:48;;;;;;;5.38;3.17;;;5.10;64.20;;;;;;5033396;28;20045;-74
2022/03/12 06:20:15;;;;;;;4.97;2.97;;;4.70;64.10;;;;;;5033472;28;20049;-74
2022/03/12 06:22:42;;;;;;;5.22;3.58;;;4.50;64.00;;;;;;5017013;28;20053;-75
2022/03/12 06:25:09;;;;;;;7.28;3.08;;;4.50;63.90;;;;;;5032122;28;20136;-74
2022/03/12 06:27:37;;;;;;;4.75;3.10;;;5.20;64.10;;;;;;5015658;28;20097;-75
2022/03/12 06:30:08;;;;;;;10.00;3.53;;;4.40;63.60;;;;;;5033342;28;20053;-75
2022/03/12 06:32:36;;;;;;;5.78;3.58;;;4.50;63.50;;;;;;5033335;28;20049;-75
2022/03/12 06:35:02;;;;;;;5.25;3.22;;;4.50;63.80;;;;;;5033324;28;20107;-75
2022/03/12 06:37:28;;;;;;;5.88;3.63;;;4.50;63.90;;;;;;5033301;28;20045;-75
2022/03/12 06:39:55;;;;;;;4.72;3.13;;;4.50;64.10;;;;;;5032253;28;20107;-74
2022/03/12 06:42:23;;;;;;;7.68;3.45;;;5.20;64.10;;;;;;5034062;28;20045;-74
2022/03/12 06:44:53;;;;;;;4.03;2.83;;;4.60;63.60;;;;;;5033183;28;20136;-74
2022/03/12 06:47:19;;;;;;;5.60;3.25;;;4.70;63.30;;;;;;5033089;28;20040;-74
2022/03/12 06:49:45;;;;;;;5.38;3.17;;;5.30;63.60;;;;;;5032746;28;20038;-75
2022/03/12 06:52:11;;;;;;;4.97;3.10;;;4.60;63.50;;;;;;5033670;28;20049;-74
2022/03/12 06:54:38;;;;;;;5.55;2.97;;;4.80;63.90;;;;;;5032906;28;20103;-74
2022/03/12 06:57:04;;;;;;;6.38;3.35;;;4.80;64.00;;;;;;5018831;28;20072;-75
2022/03/12 06:59:31;;;;;;;5.97;3.70;;;4.80;64.10;;;;;;5036086;28;20096;-75
2022/03/12 07:01:57;;;;;;;7.00;3.22;;;4.80;64.00;;;;;;5035601;28;20176;-74
2022/03/12 07:04:22;;;;;;;5.22;3.03;;;5.30;64.00;;;;;;5036742;28;20077;-74
2022/03/12 07:06:51;;;;;;;4.85;3.10;;;4.80;63.50;;;;;;5036678;28;20049;-74
2022/03/12 07:09:17;;;;;;;6.63;2.70;;;4.80;63.40;;;;;;5036656;28;20081;-75
2022/03/12 07:11:43;;;;;;;5.55;3.58;;;5.10;63.60;;;;;;5035349;28;20406;-75
2022/03/12 07:14:10;;;;;;;6.25;3.20;;;4.90;63.20;;;;;;5036412;28;20057;-74
2022/03/12 07:16:36;;;;;;;6.15;3.10;;;5.50;63.90;;;;;;5035350;28;20052;-74
2022/03/12 07:19:03;;;;;;;6.68;3.15;;;5.50;63.90;;;;;;5036426;28;20053;-74
2022/03/12 07:21:29;;;;;;;5.18;3.42;;;5.00;63.70;;;;;;5036459;28;20461;-74
2022/03/12 07:23:55;;;;;;;5.10;3.15;;;4.70;63.80;;;;;;5035261;28;20088;-74
2022/03/12 07:26:22;;;;;;;4.72;3.13;;;5.00;64.30;;;;;;5036000;28;20139;-74
2022/03/12 07:28:49;;;;;;;5.43;3.10;;;5.00;64.40;;;;;;5035118;28;20045;-75
2022/03/12 07:31:18;;;;;;;5.70;3.33;;;6.40;65.10;;;;;;5035016;28;20374;-75
2022/03/12 07:33:44;;;;;;;4.10;2.83;;;5.40;64.70;;;;;;5034988;28;20136;-75
2022/03/12 07:36:11;;;;;;;5.05;3.15;;;5.10;64.30;;;;;;5036703;28;20045;-75
2022/03/12 07:38:36;;;;;;;5.50;3.75;;;5.20;64.30;;;;;;5036386;28;20448;-75
2022/03/12 07:41:02;;;;;;;4.50;3.03;;;5.30;64.20;;;;;;5034970;28;20107;-75
2022/03/12 07:43:28;;;;;;;5.10;3.25;;;5.30;63.70;;;;;;5035787;28;20037;-75
2022/03/12 07:45:54;;;;;;;5.10;2.85;;;5.30;63.80;;;;;;5036805;28;20116;-74
2022/03/12 07:48:19;;;;;;;6.85;3.20;;;5.40;63.50;;;;;;5035607;28;20045;-74
2022/03/12 07:50:46;;;;;;;4.28;2.88;;;5.50;63.10;;;;;;5018379;28;20056;-75
2022/03/12 07:53:13;;;;;;;4.72;3.20;;;5.60;63.10;;;;;;5034876;28;20394;-75
2022/03/12 07:55:40;;;;;;;6.05;3.42;;;5.60;63.00;;;;;;5035997;28;20398;-75
2022/03/12 07:58:06;;;;;;;5.15;3.47;;;5.70;63.00;;;;;;5035609;28;20060;-75
2022/03/12 08:00:32;;;;;;;5.25;3.58;;;5.70;62.90;;;;;;5035703;28;20049;-75
2022/03/12 08:02:58;;;;;;;6.28;3.50;;;5.60;63.00;;;;;;5034486;28;20500;-75
2022/03/12 08:05:25;;;;;;;6.13;3.40;;;5.80;63.40;;;;;;5017858;28;20045;-76
2022/03/12 08:07:54;;;;;;;6.80;4.13;;;6.00;63.40;;;;;;5033882;28;20091;-76
2022/03/12 08:10:21;;;;;;;7.57;4.30;;;5.70;63.50;;;;;;5035702;28;20521;-76
2022/03/12 08:12:47;;;;;;;5.60;3.47;;;5.80;63.80;;;;;;5035218;28;20055;-75
2022/03/12 08:15:15;;;;;;;6.35;3.33;;;5.80;64.00;;;;;;5035590;28;20120;-75
2022/03/12 08:17:41;;;;;;;5.63;3.05;;;5.60;64.20;;;;;;5034737;28;20056;-76
2022/03/12 08:20:08;;;;;;;4.00;3.13;;;5.70;64.30;;;;;;5034753;28;20045;-73
2022/03/12 08:22:39;;;;;;;5.13;3.33;;;5.80;64.40;;;;;;5035701;28;20516;-73
2022/03/12 08:25:07;;;;;;;5.63;3.42;;;5.90;64.60;;;;;;5036171;28;20366;-73
2022/03/12 08:27:32;;;;;;;5.43;3.20;;;6.00;64.50;;;;;;5033760;28;20132;-73
2022/03/12 08:29:59;;;;;;;6.90;3.58;;;6.10;64.70;;;;;;5035362;28;20136;-73
2022/03/12 08:32:24;;;;;;;5.07;3.40;;;6.00;64.40;;;;;;5035476;28;20504;-73
2022/03/12 08:34:50;;;;;;;5.45;3.22;;;6.20;64.40;;;;;;5034263;28;20132;-76
2022/03/12 08:37:16;;;;;;;5.68;3.20;;;6.30;64.70;;;;;;5034589;28;20092;-75
2022/03/12 08:39:42;;;;;;;7.15;4.15;;;6.50;64.50;;;;;;5034852;28;20119;-71
2022/03/12 08:42:08;;;;;;;5.45;3.75;;;6.50;63.90;;;;;;5035035;28;20050;-70
2022/03/12 08:44:35;;;;;;;6.47;4.05;;;6.60;63.90;;;;;;5035145;28;20042;-72
2022/03/12 08:47:01;;;;;;;5.15;3.80;;;6.70;63.60;;;;;;5033020;28;20050;-71
2022/03/12 08:49:27;;;;;;;6.10;3.83;;;6.80;63.70;;;;;;5034384;28;20139;-70
2022/03/12 08:51:53;;;;;;;6.53;3.35;;;6.80;63.80;;;;;;5034116;28;20050;-71
2022/03/12 08:54:19;;;;;;;6.88;3.35;;;6.90;63.70;;;;;;5016799;28;20046;-71
2022/03/12 08:56:44;;;;;;;7.35;4.63;;;7.00;63.70;;;;;;5033005;28;20042;-71
2022/03/12 08:59:11;;;;;;;6.90;3.70;;;7.10;64.60;;;;;;5034411;28;20389;-72
2022/03/12 09:01:36;;;;;;;8.07;4.35;;;7.20;64.10;;;;;;5032672;28;20387;-71
2022/03/12 09:04:03;;;;;;;5.47;3.95;;;7.20;64.20;;;;;;5033886;28;20128;-70
2022/03/12 09:06:31;;;;;;;5.75;4.03;;;7.30;64.40;;;;;;5034572;28;20050;-70
2022/03/12 09:08:58;;;;;;;8.10;4.53;;;7.30;64.60;;;;;;5035149;28;20111;-69
2022/03/12 09:11:25;;;;;;;6.25;4.13;;;7.40;64.70;;;;;;5033562;28;20061;-70
2022/03/12 09:13:51;;;;;;;6.20;3.90;;;7.80;64.70;;;;;;5017092;28;20508;-69
2022/03/12 09:16:17;;;;;;;5.45;4.10;;;7.50;64.60;;;;;;5034464;28;20045;-69
2022/03/12 09:18:46;;;;;;;6.88;4.15;;;7.60;64.70;;;;;;5033912;28;20053;-69
2022/03/12 09:21:12;;;;;;;6.30;4.07;;;7.70;64.90;;;;;;5033935;28;20056;-70
2022/03/12 09:23:38;;;;;;;6.03;4.25;;;7.80;64.90;;;;;;5034557;28;20350;-69
2022/03/12 09:26:05;;;;;;;8.13;4.25;;;7.90;64.80;;;;;;5034354;28;20524;-71
2022/03/12 09:28:31;;;;;;;5.20;4.40;;;8.00;65.00;;;;;;5034234;28;20064;-71
2022/03/12 09:30:57;;;;;;;5.85;4.10;;;8.20;65.30;;;;;;5034229;28;20045;-74
2022/03/12 09:33:23;;;;;;;8.20;5.10;;;8.20;65.30;;;;;;5034104;28;20073;-74
2022/03/12 09:35:54;;;;;;;6.97;4.82;;;8.50;66.10;;;;;;5033574;28;20048;-73
2022/03/12 09:38:20;;;;;;;6.20;4.65;;;8.30;65.40;;;;;;5032461;28;20056;-74
2022/03/12 09:40:46;;;;;;;5.75;4.13;;;8.40;65.40;;;;;;5033780;28;20057;-73
2022/03/12 09:43:12;;;;;;;6.78;4.80;;;8.50;65.50;;;;;;5033683;28;20049;-73
2022/03/12 09:45:38;;;;;;;7.05;4.85;;;8.90;65.50;;;;;;5033649;28;20053;-73
2022/03/12 09:48:05;;;;;;;11.98;4.70;;;8.70;65.80;;;;;;5032342;28;20045;-73
2022/03/12 09:50:31;;;;;;;7.70;4.63;;;8.80;65.70;;;;;;5034732;28;20470;-73
2022/03/12 09:52:57;;;;;;;8.00;4.75;;;8.80;65.80;;;;;;5033865;28;20045;-73
2022/03/12 09:55:23;;;;;;;5.97;4.40;;;8.90;66.00;;;;;;5034121;28;20041;-73
2022/03/12 09:57:49;;;;;;;8.98;5.22;;;9.00;66.30;;;;;;5033814;28;20124;-73
2022/03/12 10:00:17;;;;;;;6.93;4.60;;;9.10;66.30;;;;;;5034338;28;20056;-73
2022/03/12 10:02:43;;;;;;;6.40;4.40;;;9.10;66.40;;;;;;5033702;28;20088;-73
2022/03/12 10:05:13;;;;;;;6.70;5.07;;;9.20;66.80;;;;;;5033318;28;20486;-73
2022/03/12 10:07:41;;;;;;;5.50;4.53;;;9.30;66.90;;;;;;5033757;28;20057;-73
2022/03/12 10:10:14;;;;;;;7.00;4.95;;;9.30;67.20;;;;;;5016261;28;20098;-72
2022/03/12 10:12:39;;;;;;;8.50;4.68;;;9.40;67.70;;;;;;5033947;28;20092;-71
2022/03/12 10:15:05;;;;;;;7.97;5.10;;;9.50;68.20;;;;;;5032565;28;20060;-73
2022/03/12 10:17:31;;;;;;;7.50;4.63;;;9.50;68.60;;;;;;5033509;28;20195;-72
2022/03/12 10:19:57;;;;;;;6.88;4.32;;;9.60;69.20;;;;;;5033838;28;20045;-72
2022/03/12 10:22:23;;;;;;;7.85;5.43;;;9.70;69.30;;;;;;5033179;28;20081;-73
2022/03/12 10:24:50;;;;;;;6.30;4.90;;;9.80;69.30;;;;;;5032244;28;20501;-73
2022/03/12 10:27:15;;;;;;;8.23;4.78;;;9.90;69.30;;;;;;5033639;28;20061;-71
2022/03/12 10:29:41;;;;;;;6.75;5.15;;;10.00;70.20;;;;;;5033538;28;20056;-72
2022/03/12 10:32:21;;;;;;;9.07;4.97;;;10.10;70.10;;;;;;5035709;28;20397;-72
2022/03/12 10:34:52;;;;;;;7.45;4.72;;;10.20;70.60;;;;;;5038061;28;20050;-72
2022/03/12 10:37:21;;;;;;;8.88;5.22;;;10.30;70.70;;;;;;5037431;28;20045;-72
2022/03/12 10:39:47;;;;;;;7.68;4.88;;;10.40;71.00;;;;;;5037201;28;20052;-72
2022/03/12 10:42:13;;;;;;;7.38;5.10;;;10.50;71.20;;;;;;5037297;28;20103;-72
2022/03/12 10:44:42;;;;;;;7.43;4.53;;;10.60;72.20;;;;;;5036865;28;20046;-72
2022/03/12 10:47:26;;;;;;;7.72;5.47;;;10.70;72.10;;;;;;5037774;28;20042;-73
2022/03/12 10:50:04;;;;;;;8.05;5.10;;;10.70;72.20;;;;;;5036622;28;20085;-72
2022/03/12 10:52:32;;;;;;;6.85;5.20;;;10.80;72.50;;;;;;5037207;28;20049;-72
2022/03/12 10:54:58;;;;;;;6.88;4.40;;;10.90;72.50;;;;;;5037089;28;20050;-73
2022/03/12 10:57:24;;;;;;;7.30;4.97;;;11.00;72.10;;;;;;5019889;28;20056;-74
2022/03/12 10:59:54;;;;;;;7.88;5.53;;;11.10;72.20;;;;;;5036780;28;20041;-73
2022/03/12 11:02:20;;;;;;;8.85;5.40;;;11.20;72.20;;;;;;5036649;28;20081;-73
2022/03/12 11:04:45;;;;;;;8.50;5.35;;;11.20;72.30;;;;;;5019022;28;20085;-73
2022/03/12 11:07:26;;;;;;;6.15;4.78;;;11.30;72.50;;;;;;5019214;28;20057;-74
2022/03/12 11:09:53;;;;;;;7.05;4.80;;;11.40;72.80;;;;;;5036291;28;20064;-74
2022/03/12 11:12:37;;;;;;;8.18;5.22;;;11.40;73.20;;;;;;5035718;28;20125;-74
2022/03/12 11:15:05;;;;;;;8.93;5.57;;;11.50;73.40;;;;;;5037309;28;20493;-74
2022/03/12 11:17:43;;;;;;;7.47;5.63;;;11.50;73.80;;;;;;5035945;28;20148;-73
2022/03/12 11:20:19;;;;;;;9.60;5.45;;;11.60;74.10;;;;;;5018177;28;20052;-72
2022/03/12 11:23:04;;;;;;;7.57;5.40;;;11.70;74.20;;;;;;5035562;28;20068;-73
2022/03/12 11:25:30;;;;;;;6.22;5.10;;;11.70;73.90;;;;;;5035082;28;20047;-72
2022/03/12 11:28:02;;;;;;;7.60;5.13;;;11.80;73.80;;;;;;5035009;28;20061;-73
2022/03/12 11:30:37;;;;;;;6.50;5.13;;;11.80;74.10;;;;;;5036231;28;20045;-73
2022/03/12 11:33:09;;;;;;;6.70;4.90;;;11.90;74.40;;;;;;5035467;28;20275;-73
2022/03/12 11:35:39;;;;;;;9.77;5.45;;;11.90;74.70;;;;;;5036161;28;20359;-74
2022/03/12 11:38:12;;;;;;;7.38;5.35;;;12.00;74.80;;;;;;5018212;28;20477;-75
2022/03/12 11:40:42;;;;;;;6.97;5.38;;;12.10;74.90;;;;;;5017962;28;20076;-74
2022/03/12 11:43:22;;;;;;;5.68;4.85;;;12.10;74.80;;;;;;5034893;28;20081;-73
2022/03/12 11:45:48;;;;;;;8.43;5.85;;;12.10;75.10;;;;;;5034976;28;20453;-75
2022/03/12 11:48:15;;;;;;;8.27;5.30;;;12.20;75.00;;;;;;5033831;28;20088;-73
2022/03/12 11:50:40;;;;;;;7.70;4.55;;;12.20;75.00;;;;;;5033972;28;20136;-70
2022/03/12 11:53:06;;;;;;;8.82;5.70;;;12.20;75.10;;;;;;5035450;28;20128;-74
2022/03/12 11:55:32;;;;;;;7.88;4.88;;;12.30;75.50;;;;;;5034206;28;20054;-74
2022/03/12 11:57:59;;;;;;;7.95;5.20;;;12.30;75.80;;;;;;5035643;28;20091;-76
2022/03/12 12:00:27;;;;;;;7.35;5.30;;;12.30;75.90;;;;;;5034252;28;20046;-74
2022/03/12 12:02:53;;;;;;;8.68;5.65;;;12.40;76.40;;;;;;5034210;28;20081;-75
2022/03/12 12:05:20;;;;;;;8.40;5.32;;;12.40;76.30;;;;;;5034268;28;20439;-73
2022/03/12 12:07:47;;;;;;;7.03;5.00;;;12.50;76.10;;;;;;5034714;28;20362;-74
2022/03/12 12:10:18;;;;;;;7.63;5.63;;;12.60;76.20;;;;;;5035551;28;20052;-74
2022/03/12 12:12:46;;;;;;;9.55;6.25;;;12.70;76.20;;;;;;5035645;28;20053;-74
2022/03/12 12:15:15;;;;;;;7.15;5.20;;;12.70;76.30;;;;;;5034675;28;20049;-73
2022/03/12 12:17:43;;;;;;;8.55;5.93;;;12.70;76.50;;;;;;5034821;28;20054;-73
2022/03/12 12:20:09;;;;;;;8.45;6.00;;;12.80;76.70;;;;;;5034955;28;20104;-73
2022/03/12 12:22:35;;;;;;;6.90;5.70;;;12.80;76.50;;;;;;5033858;28;20063;-73
2022/03/12 12:25:02;;;;;;;6.85;4.65;;;12.80;76.50;;;;;;5034937;28;20050;-74
2022/03/12 12:27:46;;;;;;;8.75;5.97;;;12.90;76.60;;;;;;5032907;28;20063;-74
2022/03/12 12:30:40;;;;;;;9.57;6.00;;;12.90;76.70;;;;;;5035432;28;20053;-74
2022/03/12 12:33:16;;;;;;;7.22;5.53;;;12.90;76.70;;;;;;5035472;28;20053;-75
2022/03/12 12:35:42;;;;;;;8.98;5.88;;;13.00;77.00;;;;;;5034032;28;20058;-75
2022/03/12 12:38:09;;;;;;;9.13;5.60;;;13.00;77.10;;;;;;5033506;28;20045;-74
2022/03/12 12:40:42;;;;;;;6.93;5.18;;;13.10;77.20;;;;;;5034517;28;20148;-75
2022/03/12 12:43:12;;;;;;;8.45;5.47;;;13.10;77.50;;;;;;5034644;28;20080;-75
2022/03/12 12:45:53;;;;;;;8.82;5.65;;;13.10;77.70;;;;;;5035240;28;20512;-74
2022/03/12 12:48:38;;;;;;;6.97;5.07;;;13.20;78.10;;;;;;5033735;28;20050;-74
2022/03/12 12:51:08;;;;;;;6.63;5.05;;;13.20;77.80;;;;;;5033090;28;20147;-75
2022/03/12 12:53:42;;;;;;;7.50;4.55;;;13.20;77.70;;;;;;5034905;28;20049;-72
2022/03/12 12:56:41;;;;;;;7.00;4.43;;;13.20;78.00;;;;;;5034877;28;20041;-73
2022/03/12 12:59:16;;;;;;;8.65;4.60;;;13.20;77.90;;;;;;5034361;28;20049;-73
2022/03/12 13:01:41;;;;;;;8.10;4.18;;;13.20;77.90;;;;;;5034996;28;20201;-73
2022/03/12 13:04:12;;;;;;;6.70;4.57;;;13.20;78.10;;;;;;5033700;28;20104;-72